sensor_id;sensor_type;location;lat;lon;timestamp;pressure;altitude;pressure_sealevel;temperature;humidity
13050;BME280;6591;51.446;5.404;2023-07-13T04:11:34;101193.34;;;19.72;47.71
13050;BME280;6591;51.446;5.404;2023-07-13T04:14:04;101188.56;;;19.86;48.01
13050;BME280;6591;51.446;5.404;2023-07-13T04:16:31;101197.41;;;20.00;48.36
13050;BME280;6591;51.446;5.404;2023-07-13T04:18:58;101200.59;;;20.16;48.54
13050;BME280;6591;51.446;5.404;2023-07-13T04:21:30;101208.47;;;20.30;48.74
13050;BME280;6591;51.446;5.404;2023-07-13T04:23:58;101203.81;;;20.43;48.76
13050;BME280;6591;51.446;5.404;2023-07-13T04:26:25;101204.41;;;20.58;48.71
13050;BME280;6591;51.446;5.404;2023-07-13T04:28:53;101209.56;;;20.72;48.78
13050;BME280;6591;51.446;5.404;2023-07-13T04:31:21;101203.88;;;20.86;48.69
13050;BME280;6591;51.446;5.404;2023-07-13T04:33:49;101208.97;;;21.00;48.58
13050;BME280;6591;51.446;5.404;2023-07-13T04:36:17;101202.56;;;21.12;48.92
13050;BME280;6591;51.446;5.404;2023-07-13T04:38:44;101206.13;;;21.24;48.86
13050;BME280;6591;51.446;5.404;2023-07-13T04:41:13;101209.59;;;21.36;48.89
13050;BME280;6591;51.446;5.404;2023-07-13T04:43:41;101217.66;;;21.47;48.97
13050;BME280;6591;51.446;5.404;2023-07-13T04:46:16;101214.22;;;21.56;49.09
13050;BME280;6591;51.446;5.404;2023-07-13T04:48:46;101224.81;;;21.69;48.99
13050;BME280;6591;51.446;5.404;2023-07-13T04:51:16;101216.75;;;21.78;48.98
13050;BME280;6591;51.446;5.404;2023-07-13T04:53:43;101220.53;;;21.87;48.85
13050;BME280;6591;51.446;5.404;2023-07-13T04:56:10;101226.25;;;21.93;48.91
13050;BME280;6591;51.446;5.404;2023-07-13T04:58:38;101220.50;;;21.98;48.76
13050;BME280;6591;51.446;5.404;2023-07-13T05:01:16;101226.09;;;22.06;48.52
13050;BME280;6591;51.446;5.404;2023-07-13T05:04:08;101224.41;;;22.15;48.63
13050;BME280;6591;51.446;5.404;2023-07-13T05:06:35;101221.91;;;22.23;48.86
13050;BME280;6591;51.446;5.404;2023-07-13T05:09:02;101229.19;;;22.32;48.42
13050;BME280;6591;51.446;5.404;2023-07-13T05:11:30;101227.38;;;22.42;48.91
13050;BME280;6591;51.446;5.404;2023-07-13T05:13:57;101231.97;;;22.51;48.98
13050;BME280;6591;51.446;5.404;2023-07-13T05:16:24;101232.16;;;22.59;48.60
13050;BME280;6591;51.446;5.404;2023-07-13T05:18:51;101234.03;;;22.68;49.08
13050;BME280;6591;51.446;5.404;2023-07-13T05:21:20;101236.09;;;22.76;48.79
13050;BME280;6591;51.446;5.404;2023-07-13T05:23:47;101238.69;;;22.87;48.52
13050;BME280;6591;51.446;5.404;2023-07-13T05:26:14;101240.81;;;22.93;48.74
13050;BME280;6591;51.446;5.404;2023-07-13T05:28:41;101247.28;;;23.02;48.30
13050;BME280;6591;51.446;5.404;2023-07-13T05:31:10;101246.72;;;23.08;48.40
13050;BME280;6591;51.446;5.404;2023-07-13T05:33:39;101249.88;;;23.13;48.51
13050;BME280;6591;51.446;5.404;2023-07-13T05:36:07;101253.88;;;23.18;48.24
13050;BME280;6591;51.446;5.404;2023-07-13T05:38:34;101247.00;;;23.24;48.38
13050;BME280;6591;51.446;5.404;2023-07-13T05:41:01;101250.16;;;23.29;48.03
13050;BME280;6591;51.446;5.404;2023-07-13T05:43:32;101253.16;;;23.36;48.07
13050;BME280;6591;51.446;5.404;2023-07-13T05:45:59;101245.44;;;23.41;47.95
13050;BME280;6591;51.446;5.404;2023-07-13T05:48:26;101251.34;;;23.46;48.19
13050;BME280;6591;51.446;5.404;2023-07-13T05:50:54;101249.66;;;23.54;48.38
13050;BME280;6591;51.446;5.404;2023-07-13T05:53:21;101257.34;;;23.59;48.05
13050;BME280;6591;51.446;5.404;2023-07-13T05:55:48;101256.78;;;23.65;48.29
13050;BME280;6591;51.446;5.404;2023-07-13T05:58:18;101258.75;;;23.73;48.12
13050;BME280;6591;51.446;5.404;2023-07-13T06:00:47;101259.91;;;23.80;47.84
13050;BME280;6591;51.446;5.404;2023-07-13T06:03:15;101265.63;;;23.86;48.27
13050;BME280;6591;51.446;5.404;2023-07-13T06:05:42;101257.44;;;23.96;48.21
13050;BME280;6591;51.446;5.404;2023-07-13T06:08:10;101261.56;;;24.10;48.07
13050;BME280;6591;51.446;5.404;2023-07-13T06:10:39;101257.25;;;24.26;48.06
13050;BME280;6591;51.446;5.404;2023-07-13T06:13:07;101270.94;;;24.44;47.85
13050;BME280;6591;51.446;5.404;2023-07-13T06:15:34;101268.59;;;24.59;47.67
13050;BME280;6591;51.446;5.404;2023-07-13T06:18:01;101273.38;;;24.74;47.59
13050;BME280;6591;51.446;5.404;2023-07-13T06:20:29;101283.00;;;24.86;47.19
13050;BME280;6591;51.446;5.404;2023-07-13T06:22:57;101280.31;;;24.96;46.95
13050;BME280;6591;51.446;5.404;2023-07-13T06:25:26;101285.81;;;25.04;46.85
13050;BME280;6591;51.446;5.404;2023-07-13T06:27:53;101280.91;;;25.08;46.43
13050;BME280;6591;51.446;5.404;2023-07-13T06:30:21;101285.06;;;25.12;46.59
13050;BME280;6591;51.446;5.404;2023-07-13T06:32:49;101281.31;;;25.13;46.73
13050;BME280;6591;51.446;5.404;2023-07-13T06:35:16;101283.03;;;25.14;46.29
13050;BME280;6591;51.446;5.404;2023-07-13T06:37:43;101295.78;;;25.13;46.01
13050;BME280;6591;51.446;5.404;2023-07-13T06:40:11;101290.50;;;25.12;45.99
13050;BME280;6591;51.446;5.404;2023-07-13T06:42:38;101298.81;;;25.10;46.13
13050;BME280;6591;51.446;5.404;2023-07-13T06:45:06;101304.09;;;25.12;46.12
13050;BME280;6591;51.446;5.404;2023-07-13T06:47:34;101302.91;;;25.14;46.14
13050;BME280;6591;51.446;5.404;2023-07-13T06:50:03;101301.59;;;25.18;45.78
13050;BME280;6591;51.446;5.404;2023-07-13T06:52:30;101292.69;;;25.26;46.17
13050;BME280;6591;51.446;5.404;2023-07-13T06:54:57;101301.09;;;25.33;46.14
13050;BME280;6591;51.446;5.404;2023-07-13T06:57:24;101301.50;;;25.38;46.26
13050;BME280;6591;51.446;5.404;2023-07-13T06:59:51;101300.72;;;25.45;46.35
13050;BME280;6591;51.446;5.404;2023-07-13T07:02:18;101310.97;;;25.51;45.89
13050;BME280;6591;51.446;5.404;2023-07-13T07:04:45;101309.41;;;25.58;45.97
13050;BME280;6591;51.446;5.404;2023-07-13T07:07:12;101306.06;;;25.64;46.00
13050;BME280;6591;51.446;5.404;2023-07-13T07:09:39;101302.88;;;25.69;45.73
13050;BME280;6591;51.446;5.404;2023-07-13T07:12:07;101304.25;;;25.73;45.42
13050;BME280;6591;51.446;5.404;2023-07-13T07:14:34;101309.06;;;25.79;45.54
13050;BME280;6591;51.446;5.404;2023-07-13T07:17:01;101310.31;;;25.85;45.38
13050;BME280;6591;51.446;5.404;2023-07-13T07:19:31;101306.13;;;25.90;45.20
13050;BME280;6591;51.446;5.404;2023-07-13T07:21:58;101312.63;;;25.97;45.09
13050;BME280;6591;51.446;5.404;2023-07-13T07:24:25;101317.44;;;26.03;45.30
13050;BME280;6591;51.446;5.404;2023-07-13T07:26:53;101318.69;;;26.09;45.05
13050;BME280;6591;51.446;5.404;2023-07-13T07:29:24;101319.91;;;26.14;44.94
13050;BME280;6591;51.446;5.404;2023-07-13T07:31:56;101324.72;;;26.21;45.11
13050;BME280;6591;51.446;5.404;2023-07-13T07:34:26;101320.69;;;26.25;44.35
13050;BME280;6591;51.446;5.404;2023-07-13T07:36:54;101313.91;;;26.29;44.53
13050;BME280;6591;51.446;5.404;2023-07-13T07:39:27;101317.88;;;26.34;44.83
13050;BME280;6591;51.446;5.404;2023-07-13T07:41:58;101317.09;;;26.42;44.75
13050;BME280;6591;51.446;5.404;2023-07-13T07:44:27;101316.25;;;26.49;44.11
13050;BME280;6591;51.446;5.404;2023-07-13T07:46:58;101325.34;;;26.58;43.82
13050;BME280;6591;51.446;5.404;2023-07-13T07:49:26;101312.63;;;26.67;44.30
13050;BME280;6591;51.446;5.404;2023-07-13T07:51:54;101322.22;;;26.79;44.17
13050;BME280;6591;51.446;5.404;2023-07-13T07:54:21;101322.50;;;26.93;44.28
13050;BME280;6591;51.446;5.404;2023-07-13T07:57:10;101325.50;;;27.16;44.44
13050;BME280;6591;51.446;5.404;2023-07-13T07:59:40;101324.69;;;27.40;44.24
13050;BME280;6591;51.446;5.404;2023-07-13T08:02:13;101324.25;;;27.69;43.41
13050;BME280;6591;51.446;5.404;2023-07-13T08:05:01;101318.69;;;27.95;43.54
13050;BME280;6591;51.446;5.404;2023-07-13T08:07:32;101332.50;;;28.09;42.88
13050;BME280;6591;51.446;5.404;2023-07-13T08:10:00;101328.91;;;28.17;42.67
13050;BME280;6591;51.446;5.404;2023-07-13T08:12:28;101324.16;;;28.19;41.75
13050;BME280;6591;51.446;5.404;2023-07-13T08:14:58;101321.91;;;28.22;42.34
13050;BME280;6591;51.446;5.404;2023-07-13T08:17:28;101314.38;;;28.33;42.50
13050;BME280;6591;51.446;5.404;2023-07-13T08:19:56;101318.81;;;28.50;42.48
13050;BME280;6591;51.446;5.404;2023-07-13T08:22:23;101321.69;;;28.73;42.09
13050;BME280;6591;51.446;5.404;2023-07-13T08:24:50;101321.09;;;28.93;41.60
13050;BME280;6591;51.446;5.404;2023-07-13T08:27:25;101347.16;;;29.12;41.16
13050;BME280;6591;51.446;5.404;2023-07-13T08:29:54;101333.47;;;29.20;40.00
13050;BME280;6591;51.446;5.404;2023-07-13T08:32:23;101335.66;;;29.25;40.02
13050;BME280;6591;51.446;5.404;2023-07-13T08:34:51;101323.19;;;29.22;39.39
13050;BME280;6591;51.446;5.404;2023-07-13T08:37:19;101331.25;;;29.16;39.63
13050;BME280;6591;51.446;5.404;2023-07-13T08:39:46;101331.97;;;29.10;39.31
13050;BME280;6591;51.446;5.404;2023-07-13T08:42:55;101335.63;;;28.94;38.88
13050;BME280;6591;51.446;5.404;2023-07-13T08:45:40;101324.31;;;28.97;39.51
13050;BME280;6591;51.446;5.404;2023-07-13T08:48:19;101331.13;;;29.09;39.61
13050;BME280;6591;51.446;5.404;2023-07-13T08:51:02;101328.97;;;29.27;40.07
13050;BME280;6591;51.446;5.404;2023-07-13T08:53:39;101329.91;;;29.51;39.57
13050;BME280;6591;51.446;5.404;2023-07-13T08:56:18;101327.38;;;29.72;39.16
13050;BME280;6591;51.446;5.404;2023-07-13T08:58:53;101326.91;;;29.91;38.80
13050;BME280;6591;51.446;5.404;2023-07-13T09:04:39;101319.69;;;30.13;37.66
13050;BME280;6591;51.446;5.404;2023-07-13T09:07:26;101325.66;;;30.16;38.17
13050;BME280;6591;51.446;5.404;2023-07-13T09:10:26;101324.44;;;30.19;37.69
13050;BME280;6591;51.446;5.404;2023-07-13T09:13:48;101320.75;;;30.26;37.99
13050;BME280;6591;51.446;5.404;2023-07-13T09:16:22;101326.41;;;30.48;37.67
13050;BME280;6591;51.446;5.404;2023-07-13T09:19:03;101332.66;;;30.56;37.27
13050;BME280;6591;51.446;5.404;2023-07-13T09:21:38;101320.38;;;30.67;36.98
13050;BME280;6591;51.446;5.404;2023-07-13T09:24:37;101334.09;;;30.67;36.62
13050;BME280;6591;51.446;5.404;2023-07-13T09:27:29;101321.78;;;30.63;36.58
13050;BME280;6591;51.446;5.404;2023-07-13T09:32:51;101330.97;;;30.70;36.12
13050;BME280;6591;51.446;5.404;2023-07-13T09:35:25;101323.28;;;30.80;36.46
13050;BME280;6591;51.446;5.404;2023-07-13T09:38:15;101320.09;;;30.91;36.32
13050;BME280;6591;51.446;5.404;2023-07-13T09:41:23;101322.16;;;31.04;36.00
13050;BME280;6591;51.446;5.404;2023-07-13T09:44:28;101321.97;;;31.05;35.47
13050;BME280;6591;51.446;5.404;2023-07-13T09:46:58;101330.22;;;31.05;35.20
13050;BME280;6591;51.446;5.404;2023-07-13T09:49:29;101329.91;;;31.00;34.73
13050;BME280;6591;51.446;5.404;2023-07-13T09:52:03;101318.38;;;30.90;34.69
13050;BME280;6591;51.446;5.404;2023-07-13T09:54:35;101332.84;;;30.84;34.72
13050;BME280;6591;51.446;5.404;2023-07-13T09:57:13;101328.78;;;30.80;35.20
13050;BME280;6591;51.446;5.404;2023-07-13T09:59:47;101325.94;;;30.88;35.43
13050;BME280;6591;51.446;5.404;2023-07-13T10:02:32;101320.63;;;31.01;35.77
13050;BME280;6591;51.446;5.404;2023-07-13T10:05:14;101329.91;;;31.30;35.50
13050;BME280;6591;51.446;5.404;2023-07-13T10:07:46;101326.06;;;31.60;35.35
13050;BME280;6591;51.446;5.404;2023-07-13T10:10:21;101321.34;;;31.96;34.79
13050;BME280;6591;51.446;5.404;2023-07-13T10:12:50;101314.06;;;32.31;34.77
13050;BME280;6591;51.446;5.404;2023-07-13T10:15:23;101324.28;;;32.65;34.62
13050;BME280;6591;51.446;5.404;2023-07-13T10:17:55;101322.13;;;32.95;33.12
13050;BME280;6591;51.446;5.404;2023-07-13T10:20:26;101320.91;;;33.11;32.43
13050;BME280;6591;51.446;5.404;2023-07-13T10:23:14;101324.94;;;33.15;32.33
13050;BME280;6591;51.446;5.404;2023-07-13T10:25:46;101339.25;;;33.32;32.05
13050;BME280;6591;51.446;5.404;2023-07-13T10:28:26;101328.25;;;33.45;32.26
13050;BME280;6591;51.446;5.404;2023-07-13T10:30:56;101339.97;;;33.67;31.58
13050;BME280;6591;51.446;5.404;2023-07-13T10:33:26;101328.81;;;33.88;31.83
13050;BME280;6591;51.446;5.404;2023-07-13T10:36:49;101321.00;;;33.91;31.29
13050;BME280;6591;51.446;5.404;2023-07-13T10:39:27;101320.75;;;33.93;31.09
13050;BME280;6591;51.446;5.404;2023-07-13T10:42:05;101326.06;;;33.88;30.81
13050;BME280;6591;51.446;5.404;2023-07-13T10:44:36;101333.41;;;33.68;30.60
13050;BME280;6591;51.446;5.404;2023-07-13T10:47:16;101338.44;;;33.38;30.03
13050;BME280;6591;51.446;5.404;2023-07-13T10:49:47;101339.53;;;33.09;29.95
13050;BME280;6591;51.446;5.404;2023-07-13T10:53:03;101356.56;;;32.57;30.08
13050;BME280;6591;51.446;5.404;2023-07-13T10:55:55;101354.13;;;31.77;31.55
13050;BME280;6591;51.446;5.404;2023-07-13T11:01:07;101350.44;;;30.60;33.04
13050;BME280;6591;51.446;5.404;2023-07-13T11:08:55;101350.00;;;29.35;34.62
13050;BME280;6591;51.446;5.404;2023-07-13T11:11:32;101351.44;;;29.15;34.96
13050;BME280;6591;51.446;5.404;2023-07-13T11:14:37;101362.63;;;28.97;35.13
13050;BME280;6591;51.446;5.404;2023-07-13T11:17:50;101361.97;;;28.87;35.37
13050;BME280;6591;51.446;5.404;2023-07-13T11:20:22;101351.19;;;28.93;35.34
13050;BME280;6591;51.446;5.404;2023-07-13T11:23:07;101344.50;;;29.04;35.49
13050;BME280;6591;51.446;5.404;2023-07-13T11:25:36;101351.53;;;29.29;35.26
13050;BME280;6591;51.446;5.404;2023-07-13T11:28:20;101333.25;;;29.61;35.30
13050;BME280;6591;51.446;5.404;2023-07-13T11:36:15;101347.03;;;30.58;33.59
13050;BME280;6591;51.446;5.404;2023-07-13T11:41:37;101356.00;;;30.52;33.82
13050;BME280;6591;51.446;5.404;2023-07-13T11:44:17;101344.88;;;30.31;33.64
13050;BME280;6591;51.446;5.404;2023-07-13T11:46:57;101345.00;;;30.15;33.97
13050;BME280;6591;51.446;5.404;2023-07-13T11:49:31;101346.13;;;30.06;33.78
13050;BME280;6591;51.446;5.404;2023-07-13T11:52:01;101340.91;;;29.96;33.89
13050;BME280;6591;51.446;5.404;2023-07-13T11:54:46;101345.56;;;29.87;33.83
13050;BME280;6591;51.446;5.404;2023-07-13T11:57:40;101358.75;;;29.84;34.06
13050;BME280;6591;51.446;5.404;2023-07-13T12:00:20;101348.19;;;29.81;33.67
13050;BME280;6591;51.446;5.404;2023-07-13T12:02:52;101355.38;;;29.82;33.48
13050;BME280;6591;51.446;5.404;2023-07-13T12:05:24;101367.19;;;29.82;33.04
13050;BME280;6591;51.446;5.404;2023-07-13T12:07:52;101360.84;;;29.82;33.26
13050;BME280;6591;51.446;5.404;2023-07-13T12:10:23;101351.09;;;29.79;33.19
13050;BME280;6591;51.446;5.404;2023-07-13T12:12:58;101348.19;;;29.81;33.42
13050;BME280;6591;51.446;5.404;2023-07-13T12:15:39;101359.25;;;29.87;33.32
13050;BME280;6591;51.446;5.404;2023-07-13T12:18:22;101357.38;;;29.88;32.96
13050;BME280;6591;51.446;5.404;2023-07-13T12:20:51;101358.56;;;29.94;33.30
13050;BME280;6591;51.446;5.404;2023-07-13T12:25:55;101374.06;;;30.01;33.40
13050;BME280;6591;51.446;5.404;2023-07-13T12:28:43;101362.00;;;30.10;33.52
13050;BME280;6591;51.446;5.404;2023-07-13T12:31:25;101367.66;;;30.31;33.30
13050;BME280;6591;51.446;5.404;2023-07-13T12:33:59;101367.47;;;30.56;33.25
13050;BME280;6591;51.446;5.404;2023-07-13T12:36:30;101358.09;;;30.80;32.93
13050;BME280;6591;51.446;5.404;2023-07-13T12:39:09;101359.75;;;31.03;33.12
13050;BME280;6591;51.446;5.404;2023-07-13T12:41:40;101370.69;;;31.33;32.40
13050;BME280;6591;51.446;5.404;2023-07-13T12:44:15;101361.94;;;31.59;31.91
13050;BME280;6591;51.446;5.404;2023-07-13T12:47:06;101365.16;;;31.83;31.93
13050;BME280;6591;51.446;5.404;2023-07-13T12:49:53;101368.34;;;32.02;31.55
13050;BME280;6591;51.446;5.404;2023-07-13T12:52:33;101369.03;;;32.10;31.19
13050;BME280;6591;51.446;5.404;2023-07-13T12:55:11;101375.38;;;32.11;31.12
13050;BME280;6591;51.446;5.404;2023-07-13T12:57:56;101369.78;;;31.98;30.37
13050;BME280;6591;51.446;5.404;2023-07-13T13:00:36;101365.16;;;31.83;30.59
13050;BME280;6591;51.446;5.404;2023-07-13T13:03:31;101378.88;;;31.62;31.18
13050;BME280;6591;51.446;5.404;2023-07-13T13:08:50;101383.56;;;31.32;31.22
13050;BME280;6591;51.446;5.404;2023-07-13T13:11:20;101395.22;;;31.20;31.74
13050;BME280;6591;51.446;5.404;2023-07-13T13:13:47;101398.06;;;31.11;31.49
13050;BME280;6591;51.446;5.404;2023-07-13T13:16:23;101397.13;;;31.04;31.77
13050;BME280;6591;51.446;5.404;2023-07-13T13:18:54;101400.94;;;31.03;32.04
13050;BME280;6591;51.446;5.404;2023-07-13T13:21:24;101400.72;;;31.05;32.58
13050;BME280;6591;51.446;5.404;2023-07-13T13:23:52;101408.19;;;31.11;32.37
13050;BME280;6591;51.446;5.404;2023-07-13T13:26:22;101409.72;;;31.13;32.82
13050;BME280;6591;51.446;5.404;2023-07-13T13:28:50;101405.91;;;31.14;33.15
13050;BME280;6591;51.446;5.404;2023-07-13T13:31:17;101407.84;;;31.14;32.63
13050;BME280;6591;51.446;5.404;2023-07-13T13:33:45;101404.41;;;31.12;32.68
13050;BME280;6591;51.446;5.404;2023-07-13T13:36:19;101405.34;;;31.04;33.14
13050;BME280;6591;51.446;5.404;2023-07-13T13:38:50;101404.84;;;31.01;33.26
13050;BME280;6591;51.446;5.404;2023-07-13T13:41:18;101412.63;;;30.97;32.72
13050;BME280;6591;51.446;5.404;2023-07-13T13:43:46;101410.25;;;30.94;32.67
13050;BME280;6591;51.446;5.404;2023-07-13T13:46:24;101414.69;;;30.95;33.24
13050;BME280;6591;51.446;5.404;2023-07-13T13:49:00;101412.22;;;31.00;32.90
13050;BME280;6591;51.446;5.404;2023-07-13T13:51:28;101414.94;;;31.08;33.09
13050;BME280;6591;51.446;5.404;2023-07-13T13:53:57;101415.00;;;31.15;33.08
13050;BME280;6591;51.446;5.404;2023-07-13T13:56:27;101415.09;;;31.22;33.40
13050;BME280;6591;51.446;5.404;2023-07-13T13:58:55;101420.50;;;31.30;32.81
13050;BME280;6591;51.446;5.404;2023-07-13T14:01:22;101419.25;;;31.32;32.55
13050;BME280;6591;51.446;5.404;2023-07-13T14:03:51;101430.44;;;31.31;33.10
13050;BME280;6591;51.446;5.404;2023-07-13T14:06:18;101429.88;;;31.21;32.64
13050;BME280;6591;51.446;5.404;2023-07-13T14:08:46;101432.03;;;31.10;32.69
13050;BME280;6591;51.446;5.404;2023-07-13T14:11:17;101425.97;;;31.00;32.73
13050;BME280;6591;51.446;5.404;2023-07-13T14:13:58;101429.16;;;30.89;32.96
13050;BME280;6591;51.446;5.404;2023-07-13T14:16:30;101434.34;;;30.84;32.84
13050;BME280;6591;51.446;5.404;2023-07-13T14:18:59;101434.06;;;30.79;32.83
13050;BME280;6591;51.446;5.404;2023-07-13T14:21:29;101435.03;;;30.71;32.93
13050;BME280;6591;51.446;5.404;2023-07-13T14:23:56;101433.47;;;30.69;33.32
13050;BME280;6591;51.446;5.404;2023-07-13T14:26:26;101439.66;;;30.71;33.81
13050;BME280;6591;51.446;5.404;2023-07-13T14:28:56;101432.06;;;30.73;33.24
13050;BME280;6591;51.446;5.404;2023-07-13T14:31:27;101430.28;;;30.80;33.44
13050;BME280;6591;51.446;5.404;2023-07-13T14:33:57;101432.28;;;30.86;33.52
13050;BME280;6591;51.446;5.404;2023-07-13T14:36:32;101433.53;;;30.98;33.29
13050;BME280;6591;51.446;5.404;2023-07-13T14:39:11;101438.56;;;31.09;33.21
13050;BME280;6591;51.446;5.404;2023-07-13T14:41:39;101431.22;;;31.25;33.18
13050;BME280;6591;51.446;5.404;2023-07-13T14:44:15;101429.22;;;31.33;32.44
13050;BME280;6591;51.446;5.404;2023-07-13T14:46:44;101429.75;;;31.43;32.97
13050;BME280;6591;51.446;5.404;2023-07-13T14:49:27;101423.03;;;31.46;32.28
13050;BME280;6591;51.446;5.404;2023-07-13T14:52:19;101419.50;;;31.52;32.65
13050;BME280;6591;51.446;5.404;2023-07-13T14:54:51;101420.34;;;31.82;32.93
13050;BME280;6591;51.446;5.404;2023-07-13T14:57:19;101422.31;;;32.09;32.80
13050;BME280;6591;51.446;5.404;2023-07-13T14:59:48;101416.00;;;32.30;32.01
13050;BME280;6591;51.446;5.404;2023-07-13T15:02:30;101415.69;;;32.40;31.26
13050;BME280;6591;51.446;5.404;2023-07-13T15:04:59;101414.22;;;32.44;31.59
13050;BME280;6591;51.446;5.404;2023-07-13T15:07:26;101419.06;;;32.42;31.51
13050;BME280;6591;51.446;5.404;2023-07-13T15:09:53;101411.41;;;32.37;31.33
13050;BME280;6591;51.446;5.404;2023-07-13T15:12:21;101418.56;;;32.31;30.83
13050;BME280;6591;51.446;5.404;2023-07-13T15:14:49;101409.59;;;32.23;30.52
13050;BME280;6591;51.446;5.404;2023-07-13T15:17:30;101409.81;;;32.07;31.11
13050;BME280;6591;51.446;5.404;2023-07-13T15:19:59;101413.53;;;31.99;30.92
13050;BME280;6591;51.446;5.404;2023-07-13T15:22:26;101407.13;;;31.92;31.02
13050;BME280;6591;51.446;5.404;2023-07-13T15:24:53;101417.88;;;31.87;31.62
13050;BME280;6591;51.446;5.404;2023-07-13T15:27:25;101423.81;;;31.90;31.40
13050;BME280;6591;51.446;5.404;2023-07-13T15:29:53;101423.22;;;31.95;31.11
13050;BME280;6591;51.446;5.404;2023-07-13T15:32:20;101418.84;;;32.01;31.71
13050;BME280;6591;51.446;5.404;2023-07-13T15:34:48;101404.47;;;32.20;31.77
13050;BME280;6591;51.446;5.404;2023-07-13T15:37:16;101407.34;;;32.54;31.37
13050;BME280;6591;51.446;5.404;2023-07-13T15:39:44;101403.59;;;32.90;31.92
13050;BME280;6591;51.446;5.404;2023-07-13T15:42:16;101407.31;;;33.10;31.24
13050;BME280;6591;51.446;5.404;2023-07-13T15:44:44;101406.13;;;33.19;30.88
13050;BME280;6591;51.446;5.404;2023-07-13T15:47:14;101400.97;;;33.09;30.49
13050;BME280;6591;51.446;5.404;2023-07-13T15:49:50;101411.91;;;32.96;30.46
13050;BME280;6591;51.446;5.404;2023-07-13T15:52:40;101410.22;;;32.67;30.08
13050;BME280;6591;51.446;5.404;2023-07-13T15:55:15;101412.13;;;32.46;30.26
13050;BME280;6591;51.446;5.404;2023-07-13T15:57:48;101408.75;;;32.22;30.29
13050;BME280;6591;51.446;5.404;2023-07-13T16:00:29;101407.59;;;31.95;30.25
13050;BME280;6591;51.446;5.404;2023-07-13T16:02:59;101416.00;;;31.73;29.94
13050;BME280;6591;51.446;5.404;2023-07-13T16:05:27;101419.06;;;31.48;30.19
13050;BME280;6591;51.446;5.404;2023-07-13T16:08:00;101416.81;;;31.23;30.23
13050;BME280;6591;51.446;5.404;2023-07-13T16:10:37;101411.78;;;30.97;30.67
13050;BME280;6591;51.446;5.404;2023-07-13T16:13:21;101404.63;;;30.73;30.41
13050;BME280;6591;51.446;5.404;2023-07-13T16:15:48;101409.53;;;30.63;31.02
13050;BME280;6591;51.446;5.404;2023-07-13T16:18:16;101420.78;;;30.53;31.05
13050;BME280;6591;51.446;5.404;2023-07-13T16:20:47;101419.47;;;30.41;31.25
13050;BME280;6591;51.446;5.404;2023-07-13T16:23:17;101410.31;;;30.34;31.95
13050;BME280;6591;51.446;5.404;2023-07-13T16:25:44;101406.81;;;30.40;32.30
13050;BME280;6591;51.446;5.404;2023-07-13T16:28:13;101414.44;;;30.53;32.75
13050;BME280;6591;51.446;5.404;2023-07-13T16:30:41;101413.31;;;30.62;32.82
13050;BME280;6591;51.446;5.404;2023-07-13T16:33:09;101416.38;;;30.67;32.55
13050;BME280;6591;51.446;5.404;2023-07-13T16:35:43;101417.41;;;30.66;32.31
13050;BME280;6591;51.446;5.404;2023-07-13T16:38:19;101406.16;;;30.61;32.92
13050;BME280;6591;51.446;5.404;2023-07-13T16:40:48;101417.47;;;30.58;32.81
13050;BME280;6591;51.446;5.404;2023-07-13T16:43:18;101418.41;;;30.50;32.93
13050;BME280;6591;51.446;5.404;2023-07-13T16:45:50;101419.69;;;30.40;32.86
13050;BME280;6591;51.446;5.404;2023-07-13T16:48:22;101427.00;;;30.24;32.72
13050;BME280;6591;51.446;5.404;2023-07-13T16:51:15;101426.50;;;29.98;33.09
13050;BME280;6591;51.446;5.404;2023-07-13T16:53:43;101422.78;;;29.91;33.61
13050;BME280;6591;51.446;5.404;2023-07-13T16:56:19;101421.34;;;29.72;33.48
13050;BME280;6591;51.446;5.404;2023-07-13T16:58:46;101421.53;;;29.63;33.78
13050;BME280;6591;51.446;5.404;2023-07-13T17:01:13;101416.47;;;29.52;33.82
13050;BME280;6591;51.446;5.404;2023-07-13T17:03:42;101427.81;;;29.40;33.90
13050;BME280;6591;51.446;5.404;2023-07-13T17:06:24;101418.97;;;29.22;33.84
13050;BME280;6591;51.446;5.404;2023-07-13T17:08:53;101422.06;;;29.11;33.69
13050;BME280;6591;51.446;5.404;2023-07-13T17:11:22;101419.69;;;29.00;34.07
13050;BME280;6591;51.446;5.404;2023-07-13T17:13:53;101423.00;;;28.87;34.23
13050;BME280;6591;51.446;5.404;2023-07-13T17:16:21;101425.94;;;28.78;33.96
13050;BME280;6591;51.446;5.404;2023-07-13T17:18:52;101417.19;;;28.66;34.56
13050;BME280;6591;51.446;5.404;2023-07-13T17:21:19;101425.38;;;28.58;34.05
13050;BME280;6591;51.446;5.404;2023-07-13T17:23:47;101414.47;;;28.50;35.03
13050;BME280;6591;51.446;5.404;2023-07-13T17:26:19;101416.69;;;28.54;35.37
13050;BME280;6591;51.446;5.404;2023-07-13T17:28:49;101406.09;;;28.59;35.25
13050;BME280;6591;51.446;5.404;2023-07-13T17:31:20;101413.59;;;28.74;35.37
13050;BME280;6591;51.446;5.404;2023-07-13T17:34:00;101409.81;;;28.91;35.58
13050;BME280;6591;51.446;5.404;2023-07-13T17:36:40;101420.72;;;29.15;35.22
13050;BME280;6591;51.446;5.404;2023-07-13T17:39:26;101410.72;;;29.38;35.49
13050;BME280;6591;51.446;5.404;2023-07-13T17:41:54;101412.28;;;29.64;35.30
13050;BME280;6591;51.446;5.404;2023-07-13T17:44:22;101414.38;;;29.93;35.03
13050;BME280;6591;51.446;5.404;2023-07-13T17:46:50;101412.16;;;30.19;35.03
13050;BME280;6591;51.446;5.404;2023-07-13T17:49:21;101413.28;;;30.47;34.67
13050;BME280;6591;51.446;5.404;2023-07-13T17:51:59;101413.53;;;30.75;34.60
13050;BME280;6591;51.446;5.404;2023-07-13T17:54:34;101419.94;;;31.05;34.45
13050;BME280;6591;51.446;5.404;2023-07-13T17:57:02;101411.22;;;31.31;33.97
13050;BME280;6591;51.446;5.404;2023-07-13T17:59:30;101416.78;;;31.52;33.91
13050;BME280;6591;51.446;5.404;2023-07-13T18:01:59;101411.47;;;31.65;32.88
13050;BME280;6591;51.446;5.404;2023-07-13T18:04:27;101411.94;;;31.69;32.38
13050;BME280;6591;51.446;5.404;2023-07-13T18:06:54;101417.75;;;31.59;32.39
13050;BME280;6591;51.446;5.404;2023-07-13T18:09:32;101417.47;;;31.39;31.82